Time;durP1;ratioP1;P1;durP2;ratioP2;P2;SDS_P1;SDS_P2;PMS_P1;PMS_P2;Temp;Humidity;BMP_temperature;BMP_pressure;BME280_temperature;BME280_humidity;BME280_pressure;Samples;Min_cycle;Max_cycle;Signal;HPM_P1;HPM_P2
2024/02/15 00:00:43;;;;;;;59.30;40.40;;;;;21.10;100628.00;;;;2068591;28;20217;-58
2024/02/15 00:01:43;;;;;;;67.18;42.70;;;;;21.00;100627.00;;;;2068914;28;20465;-58
2024/02/15 00:02:46;;;;;;;63.40;43.33;;;;;21.00;100632.00;;;;2067589;28;20221;-58
2024/02/15 00:03:48;;;;;;;68.97;43.15;;;;;21.00;100626.00;;;;2063242;28;20218;-58
2024/02/15 00:04:48;;;;;;;59.15;39.55;;;;;21.00;100619.00;;;;2049656;28;20713;-58
2024/02/15 00:05:49;;;;;;;59.73;40.10;;;;;20.70;100634.00;;;;2060670;28;20226;-58
2024/02/15 00:06:49;;;;;;;60.50;41.33;;;;;21.00;100630.00;;;;2060847;28;20258;-58
2024/02/15 00:07:49;;;;;;;65.13;40.57;;;;;21.00;100632.00;;;;2068028;28;20245;-58
2024/02/15 00:08:52;;;;;;;62.70;39.07;;;;;21.00;100647.00;;;;2062101;28;20637;-60
2024/02/15 00:09:53;;;;;;;64.53;40.75;;;;;21.00;100632.00;;;;2062221;28;20229;-58
2024/02/15 00:10:53;;;;;;;59.90;37.95;;;;;21.00;100628.00;;;;2059756;28;20207;-58
2024/02/15 00:11:54;;;;;;;62.63;39.50;;;;;21.00;100637.00;;;;2069132;28;20234;-58
2024/02/15 00:12:54;;;;;;;60.03;37.80;;;;;21.00;100638.00;;;;2068612;28;20276;-58
2024/02/15 00:13:56;;;;;;;61.03;39.60;;;;;21.00;100629.00;;;;2069037;28;20256;-58
2024/02/15 00:14:58;;;;;;;57.67;38.45;;;;;21.00;100629.00;;;;2056977;28;20297;-58
2024/02/15 00:15:59;;;;;;;56.45;38.35;;;;;21.00;100634.00;;;;2065243;28;20232;-58
2024/02/15 00:16:59;;;;;;;58.25;38.80;;;;;21.00;100637.00;;;;2072082;28;20229;-58
2024/02/15 00:18:00;;;;;;;57.33;37.03;;;;;21.00;100636.00;;;;2070668;28;20218;-58
2024/02/15 00:19:00;;;;;;;59.27;37.60;;;;;21.00;100636.00;;;;2069764;28;20234;-58
2024/02/15 00:20:03;;;;;;;61.60;38.73;;;;;21.00;100640.00;;;;2060624;28;20230;-58
2024/02/15 00:21:03;;;;;;;58.08;36.92;;;;;21.00;100641.00;;;;2070237;28;20218;-59
2024/02/15 00:22:04;;;;;;;55.03;37.27;;;;;20.90;100640.00;;;;2068918;28;20272;-58
2024/02/15 00:23:06;;;;;;;58.47;37.27;;;;;21.00;100635.00;;;;2070286;28;21193;-58
2024/02/15 00:24:07;;;;;;;56.90;37.05;;;;;20.90;100637.00;;;;2071576;28;20305;-58
2024/02/15 00:25:09;;;;;;;58.03;36.97;;;;;20.90;100629.00;;;;2066174;28;20248;-58
2024/02/15 00:26:11;;;;;;;53.63;35.15;;;;;20.90;100635.00;;;;2069687;28;20722;-58
2024/02/15 00:27:12;;;;;;;52.90;35.22;;;;;20.90;100634.00;;;;2069029;28;20724;-58
2024/02/15 00:28:12;;;;;;;57.93;37.30;;;;;20.90;100637.00;;;;2064408;28;20222;-58
2024/02/15 00:29:13;;;;;;;52.37;35.23;;;;;20.90;100633.00;;;;2060801;28;20222;-57
2024/02/15 00:30:13;;;;;;;52.50;35.13;;;;;20.90;100636.00;;;;2055953;28;20674;-59
2024/02/15 00:31:14;;;;;;;49.93;34.37;;;;;20.90;100632.00;;;;2068524;28;20333;-58
2024/02/15 00:32:14;;;;;;;53.43;34.77;;;;;20.90;100642.00;;;;2067041;28;20297;-58
2024/02/15 00:33:14;;;;;;;52.00;34.70;;;;;20.90;100631.00;;;;2064830;28;20299;-58
2024/02/15 00:34:16;;;;;;;49.10;34.83;;;;;20.90;100640.00;;;;2072950;28;20276;-58
2024/02/15 00:35:16;;;;;;;54.15;35.22;;;;;20.90;100633.00;;;;2066748;28;20229;-58
2024/02/15 00:36:17;;;;;;;53.63;35.90;;;;;20.90;100632.00;;;;2077117;28;20237;-59
2024/02/15 00:37:18;;;;;;;55.40;35.25;;;;;20.90;100637.00;;;;2074792;28;20218;-58
2024/02/15 00:38:19;;;;;;;47.23;31.20;;;;;20.90;100640.00;;;;2070764;28;20806;-58
2024/02/15 00:39:19;;;;;;;50.33;33.92;;;;;20.90;100637.00;;;;2068853;28;20626;-58
2024/02/15 00:40:20;;;;;;;53.23;34.80;;;;;20.90;100479.00;;;;2062754;28;20225;-58
2024/02/15 00:41:21;;;;;;;48.92;32.72;;;;;20.90;100632.00;;;;2077593;28;20244;-58
2024/02/15 00:42:21;;;;;;;47.00;33.57;;;;;20.90;100638.00;;;;2069697;28;20682;-58
2024/02/15 00:43:22;;;;;;;53.80;32.70;;;;;20.90;100642.00;;;;2073984;28;20367;-58
2024/02/15 00:44:22;;;;;;;48.13;32.33;;;;;20.90;100640.00;;;;2078365;28;20229;-58
2024/02/15 00:45:22;;;;;;;47.43;32.83;;;;;20.90;100629.00;;;;2063330;28;20221;-58
2024/02/15 00:46:23;;;;;;;49.17;31.77;;;;;20.90;100632.00;;;;2070367;28;20241;-58
2024/02/15 00:47:23;;;;;;;47.10;30.93;;;;;20.90;100642.00;;;;2068220;28;20301;-58
2024/02/15 00:48:28;;;;;;;50.37;30.13;;;;;20.90;100636.00;;;;2073810;28;20222;-57
2024/02/15 00:49:29;;;;;;;47.90;31.50;;;;;20.80;100633.00;;;;2078057;28;20678;-58
2024/02/15 00:50:29;;;;;;;48.33;30.73;;;;;20.90;100638.00;;;;2060404;28;20218;-58
2024/02/15 00:51:29;;;;;;;53.17;32.33;;;;;20.90;100640.00;;;;2070116;28;20693;-58
2024/02/15 00:52:30;;;;;;;48.17;31.10;;;;;20.90;100634.00;;;;2068455;28;20218;-58
2024/02/15 00:53:31;;;;;;;46.60;31.80;;;;;20.80;100647.00;;;;2075220;28;20217;-58
2024/02/15 00:54:31;;;;;;;44.80;30.97;;;;;20.90;100643.00;;;;2070738;28;20230;-58
2024/02/15 00:55:32;;;;;;;47.77;31.87;;;;;20.90;100659.00;;;;2062814;28;20233;-58
2024/02/15 00:56:32;;;;;;;54.30;32.60;;;;;20.80;100640.00;;;;2072803;28;20230;-58
2024/02/15 00:57:33;;;;;;;45.33;29.83;;;;;20.80;100645.00;;;;2068119;28;20469;-57
2024/02/15 00:58:33;;;;;;;46.00;30.83;;;;;20.80;100642.00;;;;2069795;28;20226;-58
2024/02/15 00:59:35;;;;;;;50.50;31.30;;;;;20.80;100648.00;;;;2069706;28;20234;-58
2024/02/15 01:00:35;;;;;;;43.90;31.02;;;;;20.80;100637.00;;;;2067314;28;20218;-58
2024/02/15 01:01:39;;;;;;;44.30;30.13;;;;;20.80;100638.00;;;;2070060;28;20317;-58
2024/02/15 01:02:39;;;;;;;45.17;29.50;;;;;20.80;100639.00;;;;2069523;28;20242;-58
2024/02/15 01:03:39;;;;;;;48.57;30.67;;;;;20.80;100640.00;;;;2066579;28;20214;-58
2024/02/15 01:04:40;;;;;;;46.80;31.00;;;;;20.80;100635.00;;;;2061927;28;20226;-58
2024/02/15 01:05:40;;;;;;;44.27;29.37;;;;;20.80;100636.00;;;;2069822;28;20229;-58
2024/02/15 01:06:41;;;;;;;48.53;30.77;;;;;20.80;100640.00;;;;2069386;28;20694;-58
2024/02/15 01:07:42;;;;;;;41.22;28.67;;;;;20.80;100644.00;;;;2068756;28;20229;-59
2024/02/15 01:08:42;;;;;;;41.17;28.00;;;;;20.80;100649.00;;;;2073116;28;20251;-57
2024/02/15 01:09:42;;;;;;;46.77;31.63;;;;;20.80;100640.00;;;;2060959;28;20997;-58
2024/02/15 01:10:43;;;;;;;44.50;28.70;;;;;20.80;100641.00;;;;2069994;28;20221;-58
2024/02/15 01:11:43;;;;;;;44.13;29.57;;;;;20.80;100640.00;;;;2068572;28;20288;-58
2024/02/15 01:12:44;;;;;;;39.03;27.30;;;;;20.80;100635.00;;;;2076591;28;20270;-58
2024/02/15 01:13:44;;;;;;;46.20;29.30;;;;;20.80;100641.00;;;;2070151;28;20222;-58
2024/02/15 01:14:44;;;;;;;44.63;28.67;;;;;20.70;100638.00;;;;2059881;28;20229;-58
2024/02/15 01:15:46;;;;;;;45.13;29.27;;;;;20.80;100640.00;;;;2069690;28;20300;-58
2024/02/15 01:16:46;;;;;;;42.72;30.30;;;;;20.80;100634.00;;;;2067613;28;20229;-58
2024/02/15 01:17:47;;;;;;;41.10;28.33;;;;;20.80;100636.00;;;;2069224;28;20276;-58
2024/02/15 01:18:47;;;;;;;43.43;29.47;;;;;20.80;100635.00;;;;2064543;28;20329;-58
2024/02/15 01:19:47;;;;;;;42.53;28.53;;;;;20.70;100636.00;;;;2067334;28;20811;-58
2024/02/15 01:20:48;;;;;;;40.80;28.83;;;;;20.80;100634.00;;;;2070467;28;20226;-57
2024/02/15 01:21:48;;;;;;;43.77;26.87;;;;;20.80;100632.00;;;;2068610;28;20242;-58
2024/02/15 01:22:49;;;;;;;40.20;27.23;;;;;20.80;100635.00;;;;2067607;28;20753;-58
2024/02/15 01:23:50;;;;;;;40.90;27.58;;;;;20.70;100632.00;;;;2067709;28;20214;-58
2024/02/15 01:24:51;;;;;;;42.60;28.33;;;;;20.70;100627.00;;;;2065693;28;20680;-58
2024/02/15 01:25:52;;;;;;;40.10;27.20;;;;;20.70;100632.00;;;;2068365;28;20217;-58
2024/02/15 01:26:53;;;;;;;38.10;26.52;;;;;20.70;100628.00;;;;2061906;28;20225;-57
2024/02/15 01:27:53;;;;;;;40.70;27.70;;;;;20.70;100623.00;;;;2077014;28;20214;-58
2024/02/15 01:28:53;;;;;;;40.70;27.70;;;;;20.70;100628.00;;;;2074195;28;20977;-58
2024/02/15 01:29:55;;;;;;;39.27;26.60;;;;;20.70;100627.00;;;;2058583;28;20230;-59
2024/02/15 01:30:55;;;;;;;39.80;25.73;;;;;20.70;100630.00;;;;2068730;28;20705;-58
2024/02/15 01:31:56;;;;;;;43.00;27.40;;;;;20.70;100616.00;;;;2077175;28;20243;-58
2024/02/15 01:32:56;;;;;;;41.83;27.60;;;;;20.70;100620.00;;;;2069714;28;20296;-58
2024/02/15 01:33:57;;;;;;;38.30;27.03;;;;;20.70;100617.00;;;;2061765;28;20215;-58
2024/02/15 01:34:57;;;;;;;38.53;25.47;;;;;20.70;100642.00;;;;2051866;28;20227;-58
2024/02/15 01:35:57;;;;;;;38.00;25.47;;;;;20.70;100627.00;;;;2068863;28;20300;-58
2024/02/15 01:36:58;;;;;;;41.40;26.73;;;;;20.70;100627.00;;;;2068458;28;20221;-58
2024/02/15 01:37:58;;;;;;;41.13;26.47;;;;;20.70;100627.00;;;;2068436;28;20256;-58
2024/02/15 01:38:58;;;;;;;37.10;25.07;;;;;20.70;100621.00;;;;2069396;28;20309;-58
2024/02/15 01:39:59;;;;;;;37.53;25.67;;;;;20.70;100625.00;;;;2052272;28;20218;-57
2024/02/15 01:40:59;;;;;;;38.60;25.60;;;;;20.70;100622.00;;;;2069224;28;20221;-59
2024/02/15 01:41:59;;;;;;;36.70;25.63;;;;;20.70;100627.00;;;;2069772;28;20217;-58
2024/02/15 01:43:00;;;;;;;39.70;27.87;;;;;20.70;100617.00;;;;2065937;28;20447;-58
2024/02/15 01:44:01;;;;;;;37.07;25.17;;;;;20.70;100617.00;;;;2060507;28;20227;-59
2024/02/15 01:45:01;;;;;;;40.70;26.80;;;;;20.70;100623.00;;;;2059871;28;20314;-59
2024/02/15 01:46:07;;;;;;;34.70;23.87;;;;;20.70;100617.00;;;;2069371;28;20445;-58
2024/02/15 01:47:08;;;;;;;39.17;26.13;;;;;20.70;100619.00;;;;2068460;28;20241;-58
2024/02/15 01:48:10;;;;;;;34.70;23.47;;;;;20.60;100614.00;;;;2068363;28;20614;-57
2024/02/15 01:49:10;;;;;;;32.08;23.73;;;;;20.60;100619.00;;;;2060961;28;20317;-58
2024/02/15 01:50:11;;;;;;;34.33;24.57;;;;;20.70;100617.00;;;;2041168;28;20231;-58
2024/02/15 01:51:11;;;;;;;39.17;26.93;;;;;20.60;100621.00;;;;2060910;28;20211;-58
2024/02/15 01:52:13;;;;;;;38.93;25.27;;;;;20.70;100619.00;;;;2074322;28;20815;-58
2024/02/15 01:53:13;;;;;;;32.63;24.48;;;;;20.60;100612.00;;;;2071757;28;20206;-58
2024/02/15 01:54:15;;;;;;;35.83;23.90;;;;;20.70;100614.00;;;;2076872;28;20197;-58
2024/02/15 01:55:15;;;;;;;35.90;24.67;;;;;20.70;100617.00;;;;2058313;28;20214;-58
2024/02/15 01:56:16;;;;;;;35.13;24.87;;;;;20.60;100618.00;;;;2068923;28;20199;-58
2024/02/15 01:57:16;;;;;;;39.80;23.50;;;;;20.70;100615.00;;;;2064716;28;20949;-58
2024/02/15 01:58:16;;;;;;;36.00;24.30;;;;;20.70;100624.00;;;;2060767;28;20634;-58
2024/02/15 01:59:17;;;;;;;35.67;23.93;;;;;20.70;100616.00;;;;2069961;28;20218;-58
2024/02/15 02:00:17;;;;;;;36.30;23.87;;;;;20.60;100612.00;;;;2056430;28;22061;-58
2024/02/15 02:01:18;;;;;;;38.23;23.40;;;;;20.60;100618.00;;;;2060919;28;20237;-58
2024/02/15 02:02:19;;;;;;;32.27;22.83;;;;;20.60;100616.00;;;;2064778;28;20257;-58
2024/02/15 02:03:20;;;;;;;35.70;24.07;;;;;20.60;100620.00;;;;2067748;28;20532;-58
2024/02/15 02:04:20;;;;;;;34.35;22.90;;;;;20.60;100583.00;;;;2056548;28;20378;-58
2024/02/15 02:05:21;;;;;;;35.63;23.50;;;;;20.60;100602.00;;;;2043018;28;20932;-58
2024/02/15 02:06:21;;;;;;;32.93;23.20;;;;;20.60;100610.00;;;;2060124;28;20305;-58
2024/02/15 02:07:21;;;;;;;38.27;24.30;;;;;20.60;100620.00;;;;2059341;28;20226;-58
2024/02/15 02:08:22;;;;;;;35.17;23.13;;;;;20.60;100604.00;;;;2068973;28;20230;-58
2024/02/15 02:09:22;;;;;;;35.77;24.20;;;;;20.60;100612.00;;;;2068854;28;20229;-58
2024/02/15 02:10:22;;;;;;;33.47;23.33;;;;;20.60;100606.00;;;;2060074;28;20222;-58
2024/02/15 02:11:23;;;;;;;34.23;23.27;;;;;20.60;100607.00;;;;2069015;28;20656;-59
2024/02/15 02:12:27;;;;;;;33.10;21.17;;;;;20.60;100610.00;;;;2068944;28;20214;-57
2024/02/15 02:13:28;;;;;;;33.80;23.35;;;;;20.60;100603.00;;;;2070258;28;20300;-58
2024/02/15 02:14:28;;;;;;;35.13;23.03;;;;;20.60;100597.00;;;;2068491;28;20682;-58
2024/02/15 02:15:31;;;;;;;35.60;22.60;;;;;20.60;100604.00;;;;2059396;28;20249;-58
2024/02/15 02:16:32;;;;;;;31.92;21.42;;;;;20.60;100608.00;;;;2064932;28;20210;-58
2024/02/15 02:17:33;;;;;;;36.27;25.00;;;;;20.60;100591.00;;;;2064330;28;20225;-58
2024/02/15 02:18:34;;;;;;;32.85;22.33;;;;;20.60;100594.00;;;;2066092;28;20293;-58
2024/02/15 02:19:38;;;;;;;34.77;22.70;;;;;20.60;100594.00;;;;2069576;28;20283;-58
2024/02/15 02:20:39;;;;;;;30.63;21.00;;;;;20.60;100589.00;;;;2075325;28;20479;-58
2024/02/15 02:21:39;;;;;;;32.23;21.90;;;;;20.60;100586.00;;;;2068841;28;20752;-59
2024/02/15 02:22:40;;;;;;;32.67;22.43;;;;;20.60;100583.00;;;;2068917;28;20225;-58
2024/02/15 02:23:41;;;;;;;32.35;21.25;;;;;20.60;100589.00;;;;2067215;28;20218;-57
2024/02/15 02:24:54;;;;;;;31.50;21.63;;;;;20.60;100586.00;;;;2058715;28;20225;-58
2024/02/15 02:25:54;;;;;;;33.45;21.85;;;;;20.60;100593.00;;;;2070685;28;20540;-58
2024/02/15 02:26:55;;;;;;;33.87;22.83;;;;;20.60;100589.00;;;;2068032;28;20567;-58
2024/02/15 02:27:55;;;;;;;34.37;22.30;;;;;20.60;100590.00;;;;2067778;28;20248;-57
2024/02/15 02:28:56;;;;;;;33.90;21.87;;;;;20.60;100588.00;;;;2074996;28;20217;-58
2024/02/15 02:29:58;;;;;;;33.53;20.67;;;;;20.60;100577.00;;;;2059465;28;20346;-58
2024/02/15 02:30:59;;;;;;;31.30;20.75;;;;;20.60;100587.00;;;;2065354;28;20222;-58
2024/02/15 02:31:59;;;;;;;33.87;21.83;;;;;20.60;100580.00;;;;2069241;28;20222;-58
2024/02/15 02:33:00;;;;;;;29.83;21.13;;;;;20.60;100581.00;;;;2067572;28;20460;-58
2024/02/15 02:34:00;;;;;;;30.73;20.77;;;;;20.60;100578.00;;;;2069535;28;20218;-58
2024/02/15 02:35:01;;;;;;;35.57;21.03;;;;;20.60;100579.00;;;;2058666;28;20222;-58
2024/02/15 02:36:01;;;;;;;33.30;21.70;;;;;20.60;100573.00;;;;2061248;28;20223;-58
2024/02/15 02:37:05;;;;;;;27.30;20.50;;;;;20.60;100570.00;;;;2066472;28;20924;-57
2024/02/15 02:38:05;;;;;;;28.08;18.50;;;;;20.60;100559.00;;;;2067804;28;20225;-59
2024/02/15 02:39:07;;;;;;;31.20;20.23;;;;;20.60;100572.00;;;;2076036;28;20609;-58
2024/02/15 02:40:14;;;;;;;27.73;19.38;;;;;20.50;100570.00;;;;2057414;28;20225;-58
2024/02/15 02:41:14;;;;;;;29.60;20.95;;;;;20.50;100571.00;;;;2064905;28;20726;-58
2024/02/15 02:42:15;;;;;;;27.30;20.27;;;;;20.50;100566.00;;;;2067486;28;20213;-58
2024/02/15 02:43:15;;;;;;;31.13;20.33;;;;;20.50;100571.00;;;;2067733;28;20557;-58
2024/02/15 02:44:16;;;;;;;28.97;20.97;;;;;20.50;100572.00;;;;2062917;28;20245;-58
2024/02/15 02:45:16;;;;;;;31.10;20.57;;;;;20.50;100575.00;;;;2061734;28;20531;-58
2024/02/15 02:46:16;;;;;;;27.63;18.93;;;;;20.50;100573.00;;;;2080002;28;20224;-58
2024/02/15 02:47:17;;;;;;;30.40;20.30;;;;;20.50;100572.00;;;;2069862;28;20218;-58
2024/02/15 02:48:18;;;;;;;26.70;18.80;;;;;20.50;100574.00;;;;2069180;28;20214;-58
2024/02/15 02:49:18;;;;;;;30.30;21.33;;;;;20.50;100565.00;;;;2067527;28;20752;-58
2024/02/15 02:50:22;;;;;;;29.20;20.57;;;;;20.50;100570.00;;;;2059264;28;20272;-58
2024/02/15 02:51:22;;;;;;;29.08;18.95;;;;;20.50;100574.00;;;;2069349;28;20752;-58
2024/02/15 02:52:23;;;;;;;28.63;18.37;;;;;20.10;100575.00;;;;2068945;28;20264;-58
2024/02/15 02:53:24;;;;;;;27.73;18.30;;;;;20.50;100561.00;;;;2069363;28;20237;-58
2024/02/15 02:54:24;;;;;;;29.70;20.60;;;;;20.50;100569.00;;;;2067030;28;20216;-58
2024/02/15 02:55:27;;;;;;;25.67;18.57;;;;;20.50;100574.00;;;;2058165;28;20215;-58
2024/02/15 02:56:27;;;;;;;28.00;19.20;;;;;20.50;100563.00;;;;2071103;28;20279;-58
2024/02/15 02:57:27;;;;;;;28.30;18.60;;;;;20.50;100563.00;;;;2067822;28;20304;-58
2024/02/15 02:58:28;;;;;;;27.80;19.40;;;;;20.50;100567.00;;;;2068962;28;20284;-58
2024/02/15 02:59:28;;;;;;;29.23;18.50;;;;;20.50;100565.00;;;;2067399;28;20218;-58
2024/02/15 03:00:29;;;;;;;29.40;20.27;;;;;20.50;100564.00;;;;2066200;28;20486;-58
2024/02/15 03:01:29;;;;;;;27.97;19.10;;;;;20.50;100434.00;;;;2076297;28;20225;-58
2024/02/15 03:02:29;;;;;;;26.97;19.03;;;;;20.50;100553.00;;;;2067351;28;20315;-58
2024/02/15 03:03:30;;;;;;;30.93;18.70;;;;;20.50;100559.00;;;;2068990;28;20218;-58
2024/02/15 03:04:32;;;;;;;30.03;18.90;;;;;20.50;100565.00;;;;2068588;28;20226;-57
2024/02/15 03:05:32;;;;;;;24.55;18.15;;;;;20.50;100560.00;;;;2059421;28;20265;-58
2024/02/15 03:06:33;;;;;;;24.90;17.90;;;;;20.50;100558.00;;;;2068686;28;20230;-58
2024/02/15 03:07:34;;;;;;;30.07;19.00;;;;;20.50;100557.00;;;;2065662;28;20296;-58
2024/02/15 03:08:34;;;;;;;27.10;18.23;;;;;20.50;100551.00;;;;2066673;28;20461;-58
2024/02/15 03:09:37;;;;;;;28.13;18.00;;;;;20.50;100548.00;;;;2063739;28;20540;-58
2024/02/15 03:10:38;;;;;;;24.30;16.73;;;;;20.50;100542.00;;;;2069445;28;20804;-58
2024/02/15 03:11:38;;;;;;;26.47;17.03;;;;;20.50;100546.00;;;;2068879;28;20310;-58
2024/02/15 03:12:39;;;;;;;26.07;17.77;;;;;20.40;100548.00;;;;2068913;28;20891;-60
2024/02/15 03:13:39;;;;;;;28.60;18.70;;;;;20.50;100549.00;;;;2068559;28;20302;-58
2024/02/15 03:14:40;;;;;;;24.53;16.93;;;;;20.50;100550.00;;;;2059589;28;20218;-58
2024/02/15 03:15:41;;;;;;;25.10;18.08;;;;;20.40;100539.00;;;;2068121;28;20632;-58
2024/02/15 03:16:42;;;;;;;23.37;15.93;;;;;20.50;100554.00;;;;2068884;28;20261;-58
2024/02/15 03:17:43;;;;;;;30.40;16.50;;;;;20.50;100545.00;;;;2066194;28;20249;-58
2024/02/15 03:18:43;;;;;;;27.45;18.35;;;;;20.50;100547.00;;;;2062552;28;20215;-58
2024/02/15 03:19:44;;;;;;;22.90;16.70;;;;;20.50;100554.00;;;;2056460;28;20292;-58
2024/02/15 03:20:44;;;;;;;24.77;17.70;;;;;20.40;100554.00;;;;2067323;28;20241;-58
2024/02/15 03:21:46;;;;;;;26.57;17.43;;;;;20.40;100544.00;;;;2069349;28;20210;-58
2024/02/15 03:22:53;;;;;;;26.45;17.25;;;;;20.40;100548.00;;;;2068549;28;20267;-58
2024/02/15 03:23:54;;;;;;;24.08;16.83;;;;;20.40;100550.00;;;;2069063;28;20280;-58
2024/02/15 03:24:54;;;;;;;24.50;16.80;;;;;20.40;100549.00;;;;2061689;28;20226;-58
2024/02/15 03:25:55;;;;;;;21.83;15.33;;;;;20.40;100552.00;;;;2075936;28;20307;-59
2024/02/15 03:26:56;;;;;;;23.67;16.33;;;;;20.40;100547.00;;;;2072504;28;20214;-58
2024/02/15 03:27:57;;;;;;;23.97;16.33;;;;;20.40;100551.00;;;;2068747;28;20305;-58
2024/02/15 03:28:57;;;;;;;25.90;15.85;;;;;20.50;100543.00;;;;2061765;28;20223;-58
2024/02/15 03:29:59;;;;;;;23.50;15.60;;;;;20.50;100553.00;;;;2057752;28;20921;-58
2024/02/15 03:31:00;;;;;;;24.98;16.42;;;;;20.40;100546.00;;;;2069152;28;20226;-58
2024/02/15 03:32:01;;;;;;;24.53;15.60;;;;;20.40;100540.00;;;;2067478;28;20874;-58
2024/02/15 03:33:05;;;;;;;22.00;15.20;;;;;20.50;100528.00;;;;2068070;28;20226;-58
2024/02/15 03:34:05;;;;;;;23.05;14.90;;;;;20.50;100550.00;;;;2068511;28;20738;-58
2024/02/15 03:35:06;;;;;;;24.37;16.90;;;;;20.40;100548.00;;;;2057367;28;20221;-58
2024/02/15 03:36:07;;;;;;;21.17;15.43;;;;;20.40;100547.00;;;;2069069;28;20231;-58
2024/02/15 03:37:07;;;;;;;22.17;15.13;;;;;20.00;100551.00;;;;2073691;28;20590;-58
2024/02/15 03:38:07;;;;;;;23.43;15.70;;;;;20.40;100541.00;;;;2068865;28;20218;-58
2024/02/15 03:39:08;;;;;;;21.40;15.57;;;;;20.40;100540.00;;;;2068906;28;20281;-58
2024/02/15 03:40:09;;;;;;;22.70;16.50;;;;;20.40;100539.00;;;;2053493;28;20218;-58
2024/02/15 03:41:09;;;;;;;21.53;16.00;;;;;20.40;100534.00;;;;2069771;28;20222;-58
2024/02/15 03:42:10;;;;;;;20.57;15.53;;;;;20.40;100542.00;;;;2069672;28;20492;-58
2024/02/15 03:43:10;;;;;;;23.47;15.10;;;;;20.40;100531.00;;;;2070653;28;20268;-58
2024/02/15 03:44:11;;;;;;;21.43;14.53;;;;;20.40;100520.00;;;;2069855;28;20222;-58
2024/02/15 03:45:12;;;;;;;25.77;16.83;;;;;20.40;100526.00;;;;2060143;28;20214;-58
2024/02/15 03:46:13;;;;;;;24.20;16.20;;;;;20.40;100535.00;;;;2070753;28;20241;-59
2024/02/15 03:47:14;;;;;;;24.27;15.90;;;;;20.40;100535.00;;;;2066453;28;20220;-58
2024/02/15 03:48:15;;;;;;;19.52;14.02;;;;;20.40;100536.00;;;;2069936;28;20515;-58
2024/02/15 03:49:15;;;;;;;21.17;14.83;;;;;20.40;100537.00;;;;2064720;28;20230;-58
2024/02/15 03:50:16;;;;;;;19.50;14.70;;;;;20.40;100540.00;;;;2061202;28;20234;-58
2024/02/15 03:51:18;;;;;;;23.20;15.57;;;;;20.40;100544.00;;;;2069927;28;20217;-58
2024/02/15 03:52:19;;;;;;;20.05;12.85;;;;;20.40;100541.00;;;;2077710;28;20272;-58
2024/02/15 03:53:19;;;;;;;22.67;15.03;;;;;20.40;100540.00;;;;2079582;28;20280;-58
2024/02/15 03:54:20;;;;;;;19.43;14.40;;;;;20.40;100538.00;;;;2068112;28;20496;-58
2024/02/15 03:55:22;;;;;;;22.63;15.33;;;;;20.40;100537.00;;;;2052773;28;20246;-59
2024/02/15 03:56:22;;;;;;;22.27;15.13;;;;;20.40;100592.00;;;;2064780;28;20213;-58
2024/02/15 03:57:25;;;;;;;19.57;13.90;;;;;20.40;100539.00;;;;2069260;28;20217;-58
2024/02/15 03:58:26;;;;;;;20.70;14.38;;;;;20.40;100537.00;;;;2071026;28;20217;-58
2024/02/15 03:59:26;;;;;;;21.33;14.90;;;;;20.40;100537.00;;;;2067331;28;20253;-58
2024/02/15 04:00:27;;;;;;;20.57;14.50;;;;;20.40;100535.00;;;;2067478;28;20224;-58
2024/02/15 04:01:27;;;;;;;21.80;13.70;;;;;20.40;100545.00;;;;2077283;28;20236;-58
2024/02/15 04:02:28;;;;;;;23.77;15.20;;;;;20.40;100544.00;;;;2073768;28;20723;-58
2024/02/15 04:03:29;;;;;;;20.15;13.73;;;;;20.40;100539.00;;;;2076087;28;20232;-58
2024/02/15 04:04:30;;;;;;;18.83;13.63;;;;;20.40;100548.00;;;;2067488;28;20219;-58
2024/02/15 04:05:30;;;;;;;20.63;14.17;;;;;20.40;100549.00;;;;2054003;28;20221;-58
2024/02/15 04:06:33;;;;;;;22.27;15.20;;;;;20.40;100551.00;;;;2067686;28;20570;-58
2024/02/15 04:07:33;;;;;;;19.52;12.68;;;;;20.40;100541.00;;;;2069351;28;20763;-58
2024/02/15 04:08:35;;;;;;;19.13;13.73;;;;;20.40;100542.00;;;;2068229;28;20276;-58
2024/02/15 04:09:35;;;;;;;19.38;13.60;;;;;20.30;100543.00;;;;2062382;28;20214;-59
2024/02/15 04:10:36;;;;;;;19.10;12.33;;;;;20.30;100533.00;;;;2067229;28;20685;-58
2024/02/15 04:11:37;;;;;;;19.60;12.97;;;;;20.30;100535.00;;;;2063780;28;20718;-58
2024/02/15 04:12:38;;;;;;;19.85;13.55;;;;;20.40;100539.00;;;;2074133;28;20299;-58
2024/02/15 04:13:38;;;;;;;18.07;12.53;;;;;20.30;100538.00;;;;2076488;28;20892;-58
2024/02/15 04:14:39;;;;;;;17.57;12.37;;;;;20.30;100539.00;;;;2065393;28;20631;-58
2024/02/15 04:15:41;;;;;;;20.70;13.55;;;;;20.30;100532.00;;;;2069733;28;20225;-58
2024/02/15 04:16:42;;;;;;;19.23;13.02;;;;;20.30;100537.00;;;;2069996;28;20329;-58
2024/02/15 04:17:44;;;;;;;20.87;12.50;;;;;20.30;100531.00;;;;2069580;28;20547;-58
2024/02/15 04:18:45;;;;;;;20.17;12.93;;;;;20.40;100540.00;;;;2066906;28;20752;-59
2024/02/15 04:19:46;;;;;;;18.83;12.02;;;;;20.30;100532.00;;;;2061026;28;20214;-59
2024/02/15 04:20:46;;;;;;;15.27;11.53;;;;;20.40;100531.00;;;;2069456;28;20490;-58
2024/02/15 04:21:47;;;;;;;15.23;11.47;;;;;20.40;100538.00;;;;2068353;28;20467;-58
2024/02/15 04:22:50;;;;;;;16.63;11.03;;;;;20.30;100535.00;;;;2073680;28;20216;-58
2024/02/15 04:23:51;;;;;;;19.52;13.25;;;;;20.40;100538.00;;;;2073173;28;20586;-58
2024/02/15 04:24:52;;;;;;;17.20;12.63;;;;;20.40;100531.00;;;;2063099;28;20217;-58
2024/02/15 04:25:52;;;;;;;15.40;10.83;;;;;20.40;100539.00;;;;2075512;28;20240;-58
2024/02/15 04:26:52;;;;;;;20.00;13.20;;;;;20.30;100533.00;;;;2074077;28;20256;-58
2024/02/15 04:27:53;;;;;;;18.07;12.43;;;;;20.30;100535.00;;;;2069321;28;20323;-58
2024/02/15 04:28:53;;;;;;;17.20;11.63;;;;;20.30;100537.00;;;;2074740;28;20220;-58
2024/02/15 04:29:54;;;;;;;16.70;11.70;;;;;20.30;100528.00;;;;2062281;28;20229;-57
2024/02/15 04:30:55;;;;;;;17.40;11.53;;;;;20.40;100522.00;;;;2070423;28;20249;-58
2024/02/15 04:31:57;;;;;;;18.43;12.00;;;;;20.30;100532.00;;;;2068463;28;20264;-58
2024/02/15 04:32:58;;;;;;;16.75;11.48;;;;;20.30;100535.00;;;;2066163;28;20473;-58
2024/02/15 04:33:58;;;;;;;16.77;10.53;;;;;20.30;100537.00;;;;2070118;28;20268;-58
2024/02/15 04:35:00;;;;;;;16.53;10.70;;;;;20.30;100538.00;;;;2059759;28;20234;-58
2024/02/15 04:36:04;;;;;;;15.15;10.40;;;;;20.30;100531.00;;;;2070561;28;20708;-58
2024/02/15 04:37:08;;;;;;;15.32;10.57;;;;;20.30;100534.00;;;;2068549;28;20228;-58
2024/02/15 04:38:08;;;;;;;15.30;10.95;;;;;20.30;100537.00;;;;2069662;28;20218;-58
2024/02/15 04:39:11;;;;;;;17.30;10.80;;;;;20.30;100538.00;;;;2077353;28;20272;-58
2024/02/15 04:40:13;;;;;;;13.00;10.18;;;;;20.30;100535.00;;;;2064749;28;20213;-58
2024/02/15 04:41:14;;;;;;;12.90;9.52;;;;;20.30;100537.00;;;;2076239;28;20224;-58
2024/02/15 04:42:15;;;;;;;15.75;10.98;;;;;20.30;100533.00;;;;2072097;28;20225;-58
2024/02/15 04:43:16;;;;;;;16.90;10.75;;;;;20.30;100535.00;;;;2067122;28;20595;-59
2024/02/15 04:44:19;;;;;;;17.63;11.17;;;;;20.30;100535.00;;;;2074628;28;20304;-59
2024/02/15 04:45:22;;;;;;;13.73;9.27;;;;;20.30;100534.00;;;;2060408;28;20237;-58
2024/02/15 04:46:22;;;;;;;15.05;9.85;;;;;20.30;100531.00;;;;2068918;28;20210;-58
2024/02/15 04:47:23;;;;;;;14.13;10.00;;;;;20.30;100529.00;;;;2067316;28;20214;-58
2024/02/15 04:48:24;;;;;;;14.70;10.53;;;;;20.30;100534.00;;;;2068508;28;20215;-57
2024/02/15 04:49:25;;;;;;;16.92;10.90;;;;;20.30;100531.00;;;;2066142;28;20214;-58
2024/02/15 04:50:26;;;;;;;13.02;9.73;;;;;20.30;100537.00;;;;2060847;28;20221;-58
2024/02/15 04:51:27;;;;;;;16.30;11.30;;;;;20.30;100531.00;;;;2069864;28;20297;-58
2024/02/15 04:52:27;;;;;;;14.05;10.73;;;;;20.30;100528.00;;;;2064349;28;20645;-58
2024/02/15 04:53:30;;;;;;;15.90;9.93;;;;;20.30;100533.00;;;;2069764;28;20219;-58
2024/02/15 04:54:32;;;;;;;14.18;10.15;;;;;20.30;100531.00;;;;2070886;28;20207;-58